SPCL/PCL METAR and TAF weather

Enter ICAO airport designator
Station Type Date Time Source
SPCL METAR 2019/10/20 18:00 UTC NOAA

SPCL 201800Z 11003KT 9999 BKN025 30/22 Q1013 RMK BIRD HAZARD RWY 02/20 PP000


Station Type Date Time Source
SPCL Decoded METAR 2019/10/20 18:00 UTC NOAA

Pucallpa, Peru (SPCL) 08-25S 074-36W 149M
Oct 20, 2019 - 02:00 PM EDT / 2019.10.20 1800 UTC
Wind: from the ESE (110 degrees) at 3 MPH (3 KT):0
Visibility: greater than 7 mile(s):0
Sky conditions: mostly cloudy
Temperature: 86 F (30 C)
Heat index: 91.8 F (33.2 C):1
Dew Point: 71 F (22 C)
Relative Humidity: 62%
Pressure (altimeter): 29.91 in. Hg (1013 hPa)
ob: SPCL 201800Z 11003KT 9999 BKN025 30/22 Q1013 RMK BIRD HAZARD RWY 02/20 PP000
cycle: 18

Station Type Date Time Source
SPCL TAF 2019/10/20 18:33 UTC NOAA

TAF SPCL 201700Z 2018/2118 00000KT 9999 BKN030 TX35/2020Z TN23/2111Z
TEMPO 2019/2022 NSC
BECMG 2022/2101 31004KT 9999 FEW020 SCT100

Example: see airport list